createdAt,value
2017-10-17T00:00:50.219Z,76.2
2017-10-17T00:01:51.610Z,76.1
2017-10-17T00:02:53.002Z,76.2
2017-10-17T00:03:54.395Z,76.1
2017-10-17T00:04:55.788Z,76.7
2017-10-17T00:05:57.176Z,76.4
2017-10-17T00:06:58.567Z,76.4
2017-10-17T00:07:59.959Z,76.5
2017-10-17T00:09:01.350Z,76.7
2017-10-17T00:10:02.744Z,77.1
2017-10-17T00:11:04.139Z,77.3
2017-10-17T00:12:05.531Z,77.2
2017-10-17T00:13:06.920Z,77.3
2017-10-17T00:14:08.312Z,77.8
2017-10-17T00:15:09.728Z,77.6
2017-10-17T00:16:11.094Z,77.4
2017-10-17T00:17:12.492Z,77.9
2017-10-17T00:18:13.882Z,78.1
2017-10-17T00:19:15.273Z,77.8
2017-10-17T00:20:16.664Z,77.7
2017-10-17T00:21:18.053Z,77.7
2017-10-17T00:22:19.443Z,78.1
2017-10-17T00:23:20.836Z,78.1
2017-10-17T00:24:22.233Z,77.7
2017-10-17T00:25:23.623Z,78.1
2017-10-17T00:26:25.014Z,77.9
2017-10-17T00:27:26.408Z,77.9
2017-10-17T00:28:27.800Z,78.3
2017-10-17T00:29:29.192Z,78.1
2017-10-17T00:30:30.585Z,78.0
2017-10-17T00:31:31.978Z,78.4
2017-10-17T00:32:34.281Z,78.1
2017-10-17T00:33:35.726Z,78.1
2017-10-17T00:34:37.113Z,78.3
2017-10-17T00:35:38.515Z,78.2
2017-10-17T00:36:39.896Z,78.2
2017-10-17T00:37:41.292Z,78.0
2017-10-17T00:38:42.682Z,78.0
2017-10-17T00:39:44.075Z,78.1
2017-10-17T00:40:45.467Z,77.9
2017-10-17T00:41:46.854Z,78.1
2017-10-17T00:42:48.247Z,78.1
2017-10-17T00:43:49.636Z,78.3
2017-10-17T00:44:51.027Z,78.3
2017-10-17T00:45:52.419Z,78.4
2017-10-17T00:46:53.815Z,78.3
2017-10-17T00:47:55.215Z,77.8
2017-10-17T00:48:56.598Z,78.6
2017-10-17T00:49:57.990Z,78.3
2017-10-17T00:50:59.380Z,78.2
2017-10-17T00:52:00.775Z,79.0
2017-10-17T00:53:02.170Z,77.9
2017-10-17T00:54:03.566Z,77.7
2017-10-17T00:55:04.958Z,78.3
2017-10-17T00:56:06.347Z,78.3
2017-10-17T00:57:07.738Z,78.3
2017-10-17T00:58:09.130Z,78.5
2017-10-17T00:59:10.520Z,78.5
2017-10-17T01:00:11.914Z,78.5
2017-10-17T01:01:13.306Z,78.5
2017-10-17T01:02:14.699Z,79.2
2017-10-17T01:03:16.091Z,78.9
2017-10-17T01:04:17.477Z,78.7
2017-10-17T01:05:18.868Z,79.0
2017-10-17T01:06:20.266Z,78.8
2017-10-17T01:07:21.654Z,79.2
2017-10-17T01:08:23.046Z,78.7
2017-10-17T01:09:24.442Z,79.0
2017-10-17T01:10:25.834Z,79.0
2017-10-17T01:11:27.221Z,78.9
2017-10-17T01:12:28.611Z,79.1
2017-10-17T01:13:30.004Z,78.9
2017-10-17T01:14:31.399Z,78.9
2017-10-17T01:15:32.792Z,79.4
2017-10-17T01:16:34.185Z,79.4
2017-10-17T01:17:35.571Z,79.6
2017-10-17T01:18:36.962Z,79.4
2017-10-17T01:19:38.354Z,79.3
2017-10-17T01:20:39.747Z,79.4
2017-10-17T01:21:41.140Z,79.2
2017-10-17T01:22:42.533Z,79.6
2017-10-17T01:23:43.927Z,79.3
2017-10-17T01:24:45.315Z,79.2
2017-10-17T01:25:46.709Z,79.7
2017-10-17T01:26:48.101Z,79.7
2017-10-17T01:27:49.492Z,79.5
2017-10-17T01:28:50.883Z,79.5
2017-10-17T01:29:52.275Z,79.4
2017-10-17T01:30:53.673Z,79.5
2017-10-17T01:31:55.064Z,79.3
2017-10-17T01:32:56.455Z,79.7
2017-10-17T01:33:57.846Z,79.7
2017-10-17T01:34:59.236Z,79.7
2017-10-17T01:36:00.635Z,79.7
2017-10-17T01:37:02.029Z,80.0
2017-10-17T01:38:03.424Z,79.4
2017-10-17T01:39:04.808Z,80.2
2017-10-17T01:40:06.200Z,80.2
2017-10-17T01:41:07.593Z,80.2
2017-10-17T01:42:08.984Z,80.0
2017-10-17T01:43:10.376Z,80.0
2017-10-17T01:44:11.770Z,80.2
2017-10-17T01:45:13.165Z,80.2
2017-10-17T01:46:14.555Z,79.9
2017-10-17T01:47:15.946Z,80.8
2017-10-17T01:48:17.338Z,81.1
2017-10-17T01:49:18.730Z,80.8
2017-10-17T01:50:20.121Z,80.7
2017-10-17T01:51:21.516Z,81.4
2017-10-17T01:52:22.910Z,80.7
2017-10-17T01:53:24.296Z,81.3
2017-10-17T01:54:25.688Z,81.0
2017-10-17T01:55:27.077Z,81.2
2017-10-17T01:56:28.466Z,81.2
2017-10-17T01:57:29.859Z,81.2
2017-10-17T01:58:31.254Z,81.0
2017-10-17T01:59:32.648Z,81.0
2017-10-17T02:00:34.036Z,81.0
2017-10-17T02:01:35.429Z,81.2
2017-10-17T02:02:36.817Z,81.1
2017-10-17T02:03:38.208Z,81.2
2017-10-17T02:04:39.603Z,81.3
2017-10-17T02:05:40.994Z,81.8
2017-10-17T02:06:42.384Z,82.0
2017-10-17T02:07:43.775Z,81.7
2017-10-17T02:08:45.207Z,81.8
2017-10-17T02:09:46.601Z,82.2
2017-10-17T02:10:47.989Z,82.3
2017-10-17T02:11:49.383Z,82.2
2017-10-17T02:12:50.782Z,82.0
2017-10-17T02:13:52.174Z,82.6
2017-10-17T02:14:53.563Z,82.6
2017-10-17T02:15:54.955Z,82.7
2017-10-17T02:16:56.351Z,82.6
2017-10-17T02:17:58.332Z,82.1
2017-10-17T02:18:59.729Z,82.9
2017-10-17T02:20:01.120Z,82.7
2017-10-17T02:21:02.520Z,82.1
2017-10-17T02:22:03.913Z,82.8
2017-10-17T02:23:05.307Z,82.6
2017-10-17T02:24:06.722Z,82.6
2017-10-17T02:25:08.095Z,82.4
2017-10-17T02:26:09.484Z,82.8
2017-10-17T02:27:10.876Z,82.2
2017-10-17T02:28:12.271Z,82.8
2017-10-17T02:29:13.660Z,83.3
2017-10-17T02:30:15.051Z,83.2
2017-10-17T02:31:16.442Z,83.0
2017-10-17T02:32:17.834Z,83.1
2017-10-17T02:33:19.228Z,83.1
2017-10-17T02:34:20.620Z,83.1
2017-10-17T02:35:22.013Z,83.1
2017-10-17T02:36:23.405Z,83.3
2017-10-17T02:37:24.797Z,83.1
2017-10-17T02:38:26.185Z,83.3
2017-10-17T02:39:27.580Z,83.3
2017-10-17T02:40:28.968Z,82.9
2017-10-17T02:41:30.362Z,83.2
2017-10-17T02:42:31.760Z,82.8
2017-10-17T02:43:33.150Z,83.6
2017-10-17T02:44:34.542Z,83.0
2017-10-17T02:45:35.932Z,83.7
2017-10-17T02:46:37.344Z,83.7
2017-10-17T02:47:38.736Z,83.9
2017-10-17T02:48:40.131Z,83.8
2017-10-17T02:49:41.521Z,83.9
2017-10-17T02:50:42.910Z,83.6
2017-10-17T02:51:44.300Z,83.5
2017-10-17T02:52:45.691Z,83.6
2017-10-17T02:53:47.088Z,83.2
2017-10-17T02:54:48.476Z,83.7
2017-10-17T02:55:49.872Z,83.0
2017-10-17T02:56:51.264Z,83.5
2017-10-17T02:57:52.658Z,84.9
2017-10-17T02:58:54.045Z,84.3
2017-10-17T02:59:55.436Z,84.5
2017-10-17T03:00:56.830Z,84.6
2017-10-17T03:01:58.228Z,84.6
2017-10-17T03:02:59.613Z,84.6
2017-10-17T03:04:01.005Z,84.7
2017-10-17T03:05:02.393Z,84.4
2017-10-17T03:06:03.786Z,84.0
2017-10-17T03:07:05.177Z,83.8
2017-10-17T03:08:06.566Z,83.6
2017-10-17T03:09:07.958Z,83.9
2017-10-17T03:10:09.347Z,82.8
2017-10-17T03:11:10.743Z,83.3
2017-10-17T03:12:12.135Z,83.3
2017-10-17T03:13:13.523Z,82.9
2017-10-17T03:14:14.915Z,83.0
2017-10-17T03:15:16.303Z,83.0
2017-10-17T03:16:17.697Z,82.6
2017-10-17T03:17:19.093Z,82.9
2017-10-17T03:18:20.487Z,82.8
2017-10-17T03:19:21.881Z,83.2
2017-10-17T03:20:23.268Z,83.3
2017-10-17T03:21:24.661Z,83.2
2017-10-17T03:22:26.053Z,83.1
2017-10-17T03:23:27.444Z,83.0
2017-10-17T03:24:28.840Z,82.9
2017-10-17T03:25:30.231Z,83.7
2017-10-17T03:26:31.622Z,83.3
2017-10-17T03:27:33.012Z,83.4
2017-10-17T03:28:34.401Z,83.7
2017-10-17T03:29:35.795Z,83.9
2017-10-17T03:30:37.186Z,84.0
2017-10-17T03:31:38.574Z,83.7
2017-10-17T03:32:39.971Z,84.1
2017-10-17T03:33:41.359Z,84.0
2017-10-17T03:34:42.750Z,84.3
2017-10-17T03:35:44.138Z,84.3
2017-10-17T03:36:45.530Z,84.6
2017-10-17T03:37:46.921Z,84.6
2017-10-17T03:38:48.313Z,84.7
2017-10-17T03:39:49.706Z,84.6
2017-10-17T03:40:51.098Z,84.5
2017-10-17T03:41:52.488Z,84.7
2017-10-17T03:42:53.886Z,84.8
2017-10-17T03:43:55.324Z,84.4
2017-10-17T03:44:56.715Z,84.4
2017-10-17T03:45:58.111Z,84.3
2017-10-17T03:46:59.501Z,84.3
2017-10-17T03:48:00.894Z,84.1
2017-10-17T03:49:02.282Z,84.1
2017-10-17T03:50:03.675Z,84.5
2017-10-17T03:51:05.067Z,84.5
2017-10-17T03:52:06.456Z,84.4
2017-10-17T03:53:07.851Z,84.1
2017-10-17T03:54:09.245Z,84.6
2017-10-17T03:55:10.634Z,84.7
2017-10-17T03:56:12.024Z,84.6
2017-10-17T03:57:13.419Z,84.5
2017-10-17T03:58:14.807Z,84.7
2017-10-17T03:59:16.197Z,85.2
2017-10-17T04:00:17.586Z,85.2
2017-10-17T04:01:18.980Z,85.0
2017-10-17T04:02:20.377Z,85.1
2017-10-17T04:03:21.759Z,85.2
2017-10-17T04:04:23.153Z,85.0
2017-10-17T04:05:24.544Z,84.5
2017-10-17T04:06:25.935Z,84.5
2017-10-17T04:07:27.332Z,84.8
2017-10-17T04:08:28.722Z,85.2
2017-10-17T04:09:30.114Z,85.8
2017-10-17T04:10:31.505Z,85.1
2017-10-17T04:11:32.895Z,85.5
2017-10-17T04:12:34.287Z,85.7
2017-10-17T04:13:35.676Z,85.6
2017-10-17T04:14:37.067Z,85.5
2017-10-17T04:15:38.461Z,85.9
2017-10-17T04:16:39.873Z,86.2
2017-10-17T04:17:41.238Z,86.1
2017-10-17T04:18:42.628Z,86.1
2017-10-17T04:19:44.022Z,85.8
2017-10-17T04:20:45.412Z,86.0
2017-10-17T04:21:46.803Z,86.3
2017-10-17T04:22:48.197Z,86.2
2017-10-17T04:23:49.584Z,86.4
2017-10-17T04:24:50.978Z,86.2
2017-10-17T04:25:52.375Z,86.6
2017-10-17T04:26:53.768Z,86.8
2017-10-17T04:27:55.167Z,87.2
2017-10-17T04:28:56.566Z,87.2
2017-10-17T04:29:57.956Z,86.9
2017-10-17T04:30:59.348Z,87.0
2017-10-17T04:32:00.737Z,86.8
2017-10-17T04:33:02.136Z,86.9
2017-10-17T04:34:03.525Z,87.0
2017-10-17T04:35:04.916Z,87.2
2017-10-17T04:36:06.312Z,87.4
2017-10-17T04:37:07.708Z,87.7
2017-10-17T04:38:09.134Z,87.7
2017-10-17T04:39:10.497Z,87.7
2017-10-17T04:40:11.893Z,88.6
2017-10-17T04:41:13.285Z,88.6
2017-10-17T04:42:14.675Z,88.3
2017-10-17T04:43:16.071Z,88.3
2017-10-17T04:44:17.470Z,88.2
2017-10-17T04:45:18.861Z,88.5
2017-10-17T04:46:20.254Z,88.6
2017-10-17T04:47:21.649Z,88.2
2017-10-17T04:48:23.038Z,87.9
2017-10-17T04:49:24.431Z,88.1
2017-10-17T04:50:25.821Z,87.8
2017-10-17T04:51:27.213Z,88.4
2017-10-17T04:52:28.604Z,89.1
2017-10-17T04:53:29.995Z,88.8
2017-10-17T04:54:31.386Z,89.2
2017-10-17T04:55:32.781Z,88.8
2017-10-17T04:56:34.205Z,88.9
2017-10-17T04:57:35.606Z,89.0
2017-10-17T04:58:36.999Z,89.1
2017-10-17T04:59:38.384Z,89.2
2017-10-17T05:00:39.779Z,88.7
2017-10-17T05:01:41.166Z,88.8
2017-10-17T05:02:42.561Z,89.2
2017-10-17T05:03:43.952Z,88.8
2017-10-17T05:04:45.346Z,88.8
2017-10-17T05:05:46.742Z,89.0
2017-10-17T05:06:48.128Z,89.3
2017-10-17T05:07:49.520Z,89.3
2017-10-17T05:08:50.913Z,89.4
2017-10-17T05:09:52.302Z,89.5
2017-10-17T05:10:53.699Z,89.3
2017-10-17T05:11:55.092Z,89.2
2017-10-17T05:12:56.486Z,89.3
2017-10-17T05:13:57.874Z,89.3
2017-10-17T05:14:59.264Z,89.4
2017-10-17T05:16:00.771Z,88.9
2017-10-17T05:17:02.146Z,89.8
2017-10-17T05:18:03.540Z,89.7
2017-10-17T05:19:04.995Z,89.4
2017-10-17T05:20:06.386Z,89.6
2017-10-17T05:21:07.776Z,89.2
2017-10-17T05:22:09.168Z,89.4
2017-10-17T05:23:10.558Z,89.2
2017-10-17T05:24:11.953Z,89.3
2017-10-17T05:25:13.343Z,89.5
2017-10-17T05:26:14.975Z,88.9
2017-10-17T05:27:16.377Z,88.8
2017-10-17T05:28:17.764Z,88.8
2017-10-17T05:29:19.156Z,89.2
2017-10-17T05:30:20.548Z,89.2
2017-10-17T05:31:21.946Z,88.3
2017-10-17T05:32:23.652Z,88.5
2017-10-17T05:33:25.040Z,88.4
2017-10-17T05:34:26.433Z,88.9
2017-10-17T05:35:27.824Z,88.7
2017-10-17T05:36:29.216Z,88.8
2017-10-17T05:37:30.607Z,88.5
2017-10-17T05:38:32.000Z,88.7
2017-10-17T05:39:33.396Z,88.8
2017-10-17T05:40:34.789Z,88.9
2017-10-17T05:41:36.185Z,89.2
2017-10-17T05:42:37.572Z,89.0
2017-10-17T05:43:38.962Z,88.8
2017-10-17T05:44:40.411Z,88.7
2017-10-17T05:45:41.801Z,88.9
2017-10-17T05:46:43.195Z,88.8
2017-10-17T05:47:44.603Z,88.8
2017-10-17T05:48:46.000Z,88.5
2017-10-17T05:49:48.055Z,88.5
2017-10-17T05:50:49.446Z,88.6
2017-10-17T05:51:50.838Z,88.5
2017-10-17T05:52:52.230Z,88.7
2017-10-17T05:53:53.623Z,88.8
2017-10-17T05:54:55.018Z,88.6
2017-10-17T05:55:57.119Z,88.7
2017-10-17T05:56:58.512Z,88.8
2017-10-17T05:57:59.907Z,89.0
2017-10-17T05:59:01.297Z,88.8
2017-10-17T06:00:02.688Z,89.4
2017-10-17T06:01:04.083Z,89.7
2017-10-17T06:02:05.478Z,89.2
2017-10-17T06:03:06.882Z,89.1
2017-10-17T06:04:08.273Z,89.3
2017-10-17T06:05:09.674Z,89.3
2017-10-17T06:06:11.062Z,89.0
2017-10-17T06:07:12.454Z,89.8
2017-10-17T06:08:13.852Z,89.6
2017-10-17T06:09:15.246Z,89.1
2017-10-17T06:10:16.641Z,89.3
2017-10-17T06:11:18.034Z,89.1
2017-10-17T06:12:19.425Z,89.0
2017-10-17T06:13:20.836Z,89.2
2017-10-17T06:14:22.210Z,89.6
2017-10-17T06:15:23.605Z,89.1
2017-10-17T06:16:24.999Z,89.6
2017-10-17T06:17:26.393Z,90.0
2017-10-17T06:18:27.788Z,89.9
2017-10-17T06:19:29.181Z,89.9
2017-10-17T06:20:30.570Z,89.8
2017-10-17T06:21:31.961Z,90.0
2017-10-17T06:22:33.353Z,89.9
2017-10-17T06:23:34.766Z,90.0
2017-10-17T06:24:36.162Z,89.9
2017-10-17T06:25:37.550Z,89.7
2017-10-17T06:26:38.945Z,89.9
2017-10-17T06:27:40.338Z,90.2
2017-10-17T06:28:41.732Z,89.9
2017-10-17T06:29:43.127Z,90.0
2017-10-17T06:30:44.522Z,90.0
2017-10-17T06:31:45.914Z,90.0
2017-10-17T06:32:47.306Z,89.7
2017-10-17T06:33:48.698Z,89.9
2017-10-17T06:34:50.090Z,89.9
2017-10-17T06:35:51.488Z,90.0
2017-10-17T06:36:52.877Z,89.7
2017-10-17T06:37:54.270Z,89.9
2017-10-17T06:38:55.665Z,89.9
2017-10-17T06:39:57.057Z,89.9
2017-10-17T06:40:58.447Z,89.9
2017-10-17T06:41:59.841Z,89.6
2017-10-17T06:43:01.230Z,90.1
2017-10-17T06:44:02.628Z,89.7
2017-10-17T06:45:04.023Z,89.7
2017-10-17T06:46:05.416Z,89.9
2017-10-17T06:47:06.807Z,89.7
2017-10-17T06:48:08.201Z,90.1
2017-10-17T06:49:09.593Z,89.8
2017-10-17T06:50:10.986Z,89.9
2017-10-17T06:51:12.377Z,90.0
2017-10-17T06:52:13.773Z,89.9
2017-10-17T06:53:15.169Z,89.8
2017-10-17T06:54:16.562Z,89.5
2017-10-17T06:55:17.955Z,90.1
2017-10-17T06:56:19.349Z,89.8
2017-10-17T06:57:20.740Z,90.0
2017-10-17T06:58:22.135Z,90.1
2017-10-17T06:59:23.532Z,90.0
2017-10-17T07:00:24.928Z,90.0
2017-10-17T07:01:26.320Z,90.1
2017-10-17T07:02:27.714Z,90.0
2017-10-17T07:03:29.105Z,90.2
2017-10-17T07:04:30.526Z,89.8
2017-10-17T07:05:31.896Z,90.2
2017-10-17T07:06:33.294Z,90.3
2017-10-17T07:07:34.687Z,90.1
2017-10-17T07:08:36.081Z,90.0
2017-10-17T07:09:37.475Z,89.8
2017-10-17T07:10:38.871Z,89.7
2017-10-17T07:11:40.279Z,89.8
2017-10-17T07:12:41.672Z,89.3
2017-10-17T07:13:43.078Z,89.8
2017-10-17T07:14:44.466Z,89.1
2017-10-17T07:15:45.858Z,89.5
2017-10-17T07:16:47.253Z,89.7
2017-10-17T07:17:48.647Z,89.5
2017-10-17T07:18:50.043Z,89.4
2017-10-17T07:19:51.438Z,89.7
2017-10-17T07:20:52.832Z,89.8
2017-10-17T07:21:54.227Z,89.5
2017-10-17T07:22:55.621Z,89.7
2017-10-17T07:23:57.020Z,89.3
2017-10-17T07:24:58.411Z,88.5
2017-10-17T07:25:59.808Z,88.3
2017-10-17T07:27:01.203Z,88.5
2017-10-17T07:28:02.600Z,88.5
2017-10-17T07:29:03.994Z,88.0
2017-10-17T07:30:05.391Z,88.3
2017-10-17T07:31:06.783Z,88.3
2017-10-17T07:32:08.177Z,88.4
2017-10-17T07:33:09.572Z,88.3
2017-10-17T07:34:10.965Z,88.5
2017-10-17T07:35:12.367Z,88.2
2017-10-17T07:36:13.768Z,87.8
2017-10-17T07:37:15.154Z,87.9
2017-10-17T07:38:16.570Z,88.0
2017-10-17T07:39:17.963Z,87.8
2017-10-17T07:40:19.374Z,87.6
2017-10-17T07:41:20.753Z,88.1
2017-10-17T07:42:22.149Z,87.8
2017-10-17T07:43:23.545Z,87.5
2017-10-17T07:44:24.940Z,87.3
2017-10-17T07:45:26.333Z,87.3
2017-10-17T07:46:27.725Z,87.1
2017-10-17T07:47:29.122Z,86.5
2017-10-17T07:48:30.519Z,87.0
2017-10-17T07:49:31.915Z,86.9
2017-10-17T07:50:33.311Z,86.9
2017-10-17T07:51:34.707Z,87.3
2017-10-17T07:52:36.102Z,87.3
2017-10-17T07:53:37.499Z,86.9
2017-10-17T07:54:38.893Z,86.6
2017-10-17T07:55:40.291Z,86.2
2017-10-17T07:56:41.689Z,86.2
2017-10-17T07:57:43.086Z,86.1
2017-10-17T07:58:44.479Z,86.5
2017-10-17T07:59:45.876Z,85.8
2017-10-17T08:00:47.269Z,85.4
2017-10-17T08:01:48.666Z,85.7
2017-10-17T08:02:50.061Z,85.9
2017-10-17T08:03:51.461Z,85.9
2017-10-17T08:04:52.856Z,85.3
2017-10-17T08:05:54.252Z,85.4
2017-10-17T08:06:55.649Z,85.3
2017-10-17T08:07:57.042Z,84.8
2017-10-17T08:08:58.439Z,85.3
2017-10-17T08:09:59.840Z,85.3
2017-10-17T08:11:01.231Z,84.9
2017-10-17T08:12:02.630Z,85.7
2017-10-17T08:13:04.025Z,85.2
2017-10-17T08:14:05.420Z,86.3
2017-10-17T08:15:06.813Z,85.6
2017-10-17T08:16:08.210Z,85.8
2017-10-17T08:17:09.603Z,85.3
2017-10-17T08:18:11.004Z,85.8
2017-10-17T08:19:12.402Z,85.8
2017-10-17T08:20:13.795Z,85.4
2017-10-17T08:21:15.213Z,86.3
2017-10-17T08:22:16.609Z,85.3
2017-10-17T08:23:18.005Z,85.3
2017-10-17T08:24:19.403Z,84.9
2017-10-17T08:25:20.799Z,84.9
2017-10-17T08:26:22.197Z,84.8
2017-10-17T08:27:23.591Z,84.5
2017-10-17T08:28:24.986Z,84.4
2017-10-17T08:29:26.381Z,84.5
2017-10-17T08:30:27.775Z,84.8
2017-10-17T08:31:29.172Z,84.8
2017-10-17T08:32:30.573Z,84.7
2017-10-17T08:33:31.967Z,84.5
2017-10-17T08:34:33.370Z,84.3
2017-10-17T08:35:34.758Z,84.3
2017-10-17T08:36:36.154Z,84.5
2017-10-17T08:37:37.551Z,84.0
2017-10-17T08:38:38.948Z,84.1
2017-10-17T08:39:40.347Z,83.9
2017-10-17T08:40:41.744Z,84.0
2017-10-17T08:41:43.138Z,84.1
2017-10-17T08:42:44.533Z,83.9
2017-10-17T08:43:45.926Z,84.0
2017-10-17T08:44:47.324Z,84.0
2017-10-17T08:45:48.721Z,84.2
2017-10-17T08:46:50.119Z,83.6
2017-10-17T08:47:51.514Z,83.5
2017-10-17T08:48:52.913Z,84.0
2017-10-17T08:49:54.310Z,83.3
2017-10-17T08:50:55.706Z,84.0
2017-10-17T08:51:57.106Z,83.2
2017-10-17T08:52:58.505Z,83.4
2017-10-17T08:53:59.906Z,83.2
2017-10-17T08:55:01.306Z,82.9
2017-10-17T08:56:02.702Z,82.5
2017-10-17T08:57:04.104Z,82.6
2017-10-17T08:58:05.499Z,83.1
2017-10-17T08:59:06.897Z,82.2
2017-10-17T09:00:08.293Z,82.4
2017-10-17T09:01:09.694Z,82.3
2017-10-17T09:02:11.089Z,82.3
2017-10-17T09:03:12.484Z,82.4
2017-10-17T09:04:13.883Z,82.1
2017-10-17T09:05:15.282Z,82.4
2017-10-17T09:06:16.677Z,82.1
2017-10-17T09:07:18.075Z,82.0
2017-10-17T09:08:19.474Z,81.3
2017-10-17T09:09:20.870Z,81.4
2017-10-17T09:10:22.265Z,80.8
2017-10-17T09:11:23.675Z,80.6
2017-10-17T09:12:25.063Z,80.9
2017-10-17T09:13:26.456Z,80.7
2017-10-17T09:14:27.857Z,80.7
2017-10-17T09:15:29.257Z,80.9
2017-10-17T09:16:30.653Z,80.9
2017-10-17T09:17:32.053Z,81.0
2017-10-17T09:18:33.452Z,80.3
2017-10-17T09:19:34.847Z,79.6
2017-10-17T09:20:36.244Z,79.3
2017-10-17T09:21:37.670Z,79.8
2017-10-17T09:22:39.070Z,79.8
2017-10-17T09:23:40.468Z,79.8
2017-10-17T09:24:41.865Z,79.5
2017-10-17T09:25:43.264Z,79.0
2017-10-17T09:26:44.660Z,78.4
2017-10-17T09:27:46.059Z,78.3
2017-10-17T09:28:47.459Z,78.2
2017-10-17T09:29:48.859Z,77.2
2017-10-17T09:30:50.261Z,76.9
2017-10-17T09:31:51.655Z,76.3
2017-10-17T09:32:53.051Z,76.0
2017-10-17T09:33:54.450Z,75.9
2017-10-17T09:34:55.849Z,75.9
2017-10-17T09:35:57.246Z,75.7
2017-10-17T09:36:58.642Z,75.2
2017-10-17T09:38:00.040Z,75.0
2017-10-17T09:39:01.441Z,74.4
2017-10-17T09:40:02.842Z,74.0
2017-10-17T09:41:04.238Z,73.4
2017-10-17T09:42:05.640Z,73.4
2017-10-17T09:43:07.033Z,72.4
2017-10-17T09:44:08.434Z,72.3
2017-10-17T09:45:09.834Z,72.3
2017-10-17T09:46:11.232Z,71.6
2017-10-17T09:47:12.630Z,70.7
2017-10-17T09:48:14.030Z,70.7
2017-10-17T09:49:15.430Z,70.0
2017-10-17T09:50:16.824Z,69.3
2017-10-17T09:51:18.226Z,69.5
2017-10-17T09:52:19.626Z,69.0
2017-10-17T09:53:21.023Z,68.6
2017-10-17T09:54:22.422Z,68.3
2017-10-17T09:55:23.820Z,66.8
2017-10-17T09:56:25.220Z,66.4
2017-10-17T09:57:26.620Z,66.3
2017-10-17T09:58:28.020Z,66.1
2017-10-17T09:59:29.420Z,66.9
2017-10-17T10:00:30.822Z,66.2
2017-10-17T10:01:32.217Z,65.7
2017-10-17T10:02:33.618Z,65.2
2017-10-17T10:03:35.017Z,65.8
2017-10-17T10:04:36.415Z,65.3
2017-10-17T10:05:37.817Z,65.2
2017-10-17T10:06:39.217Z,64.6
2017-10-17T10:07:40.618Z,64.7
2017-10-17T10:08:42.019Z,65.2
2017-10-17T10:09:43.416Z,64.0
2017-10-17T10:10:44.816Z,63.9
2017-10-17T10:11:46.215Z,63.9
2017-10-17T10:12:47.615Z,63.4
2017-10-17T10:13:49.017Z,63.1
2017-10-17T10:14:50.414Z,62.1
2017-10-17T10:15:51.815Z,62.1
2017-10-17T10:16:53.213Z,62.8
2017-10-17T10:17:54.613Z,63.0
2017-10-17T10:18:56.014Z,62.3
2017-10-17T10:19:57.414Z,61.7
2017-10-17T10:20:58.814Z,62.7
2017-10-17T10:22:00.211Z,61.7
2017-10-17T10:23:01.613Z,61.7
2017-10-17T10:24:03.020Z,61.9
2017-10-17T10:25:04.417Z,61.8
2017-10-17T10:26:05.821Z,61.6
2017-10-17T10:27:07.223Z,61.3
2017-10-17T10:28:08.625Z,61.3
2017-10-17T10:29:10.020Z,61.4
2017-10-17T10:30:11.419Z,60.9
2017-10-17T10:31:12.818Z,60.0
2017-10-17T10:32:14.218Z,59.5
2017-10-17T10:33:15.617Z,59.8
2017-10-17T10:34:17.019Z,60.2
2017-10-17T10:35:18.427Z,59.6
2017-10-17T10:36:19.827Z,59.5
2017-10-17T10:37:21.225Z,58.3
2017-10-17T10:38:22.628Z,58.8
2017-10-17T10:39:24.026Z,58.1
2017-10-17T10:40:25.429Z,58.6
2017-10-17T10:41:26.835Z,59.0
2017-10-17T10:42:28.236Z,57.7
2017-10-17T10:43:29.635Z,57.6
2017-10-17T10:44:31.036Z,57.1
2017-10-17T10:45:32.431Z,57.5
2017-10-17T10:46:33.836Z,56.5
2017-10-17T10:47:35.235Z,56.7
2017-10-17T10:48:36.638Z,56.7
2017-10-17T10:49:38.039Z,56.6
2017-10-17T10:50:39.442Z,56.5
2017-10-17T10:51:40.841Z,55.8
2017-10-17T10:52:42.240Z,55.1
2017-10-17T10:53:43.641Z,55.6
2017-10-17T10:54:45.039Z,55.5
2017-10-17T10:55:46.445Z,55.1
2017-10-17T10:56:47.844Z,55.6
2017-10-17T10:57:49.244Z,56.2
2017-10-17T10:58:50.643Z,56.8
2017-10-17T10:59:52.044Z,57.2
2017-10-17T11:00:53.447Z,57.7
2017-10-17T11:01:54.847Z,57.0
2017-10-17T11:02:56.245Z,57.2
2017-10-17T11:03:57.649Z,57.6
2017-10-17T11:04:59.050Z,58.7
2017-10-17T11:06:00.447Z,58.4
2017-10-17T11:07:01.847Z,59.8
2017-10-17T11:08:03.249Z,59.4
2017-10-17T11:09:04.650Z,59.4
2017-10-17T11:10:06.049Z,58.6
2017-10-17T11:11:07.456Z,57.5
2017-10-17T11:12:08.854Z,57.4
2017-10-17T11:13:10.254Z,57.4
2017-10-17T11:14:11.655Z,56.5
2017-10-17T11:15:13.055Z,56.3
2017-10-17T11:16:14.459Z,55.7
2017-10-17T11:17:15.865Z,56.0
2017-10-17T11:18:17.268Z,55.4
2017-10-17T11:19:18.663Z,55.5
2017-10-17T11:20:20.069Z,56.9
2017-10-17T11:21:21.468Z,57.3
2017-10-17T11:22:22.868Z,57.4
2017-10-17T11:23:24.268Z,57.7
2017-10-17T11:24:25.673Z,58.8
2017-10-17T11:25:27.074Z,58.1
2017-10-17T11:26:28.471Z,58.1
2017-10-17T11:27:29.870Z,57.4
2017-10-17T11:28:31.270Z,57.7
2017-10-17T11:29:32.673Z,58.4
2017-10-17T11:30:34.073Z,59.1
2017-10-17T11:31:35.472Z,59.3
2017-10-17T11:32:36.875Z,59.4
2017-10-17T11:33:38.273Z,59.4
2017-10-17T11:34:39.672Z,59.5
2017-10-17T11:35:41.108Z,59.7
2017-10-17T11:36:42.509Z,59.4
2017-10-17T11:37:43.909Z,58.8
2017-10-17T11:38:45.313Z,59.1
2017-10-17T11:39:46.714Z,59.2
2017-10-17T11:40:48.112Z,59.7
2017-10-17T11:41:49.510Z,59.6
2017-10-17T11:42:50.914Z,59.7
2017-10-17T11:43:52.314Z,59.4
2017-10-17T11:44:53.716Z,59.6
2017-10-17T11:45:55.118Z,60.6
2017-10-17T11:46:56.522Z,60.5
2017-10-17T11:47:57.930Z,60.4
2017-10-17T11:48:59.320Z,60.3
2017-10-17T11:50:00.721Z,61.0
2017-10-17T11:51:02.123Z,61.1
2017-10-17T11:52:03.523Z,60.8
2017-10-17T11:53:04.924Z,60.5
2017-10-17T11:54:06.329Z,60.7
2017-10-17T11:55:07.728Z,60.6
2017-10-17T11:56:09.126Z,60.6
2017-10-17T11:57:10.525Z,61.2
2017-10-17T11:58:11.930Z,61.5
2017-10-17T11:59:13.327Z,61.3
2017-10-17T12:00:14.729Z,61.3
2017-10-17T12:01:16.128Z,61.7
2017-10-17T12:02:17.526Z,62.1
2017-10-17T12:03:18.927Z,62.3
2017-10-17T12:04:20.327Z,62.9
2017-10-17T12:05:21.728Z,62.5
2017-10-17T12:06:23.129Z,62.2
2017-10-17T12:07:24.528Z,62.9
2017-10-17T12:08:25.944Z,63.0
2017-10-17T12:09:27.330Z,62.1
2017-10-17T12:10:28.729Z,62.5
2017-10-17T12:11:30.128Z,63.1
2017-10-17T12:12:31.530Z,62.9
2017-10-17T12:13:32.931Z,63.4
2017-10-17T12:14:34.335Z,64.9
2017-10-17T12:15:35.729Z,64.6
2017-10-17T12:16:37.130Z,64.7
2017-10-17T12:17:38.531Z,65.3
2017-10-17T12:18:39.930Z,64.6
2017-10-17T12:19:41.329Z,64.7
2017-10-17T12:20:42.729Z,63.8
2017-10-17T12:21:44.131Z,64.4
2017-10-17T12:22:45.532Z,64.4
2017-10-17T12:23:46.937Z,63.7
2017-10-17T12:24:48.332Z,64.9
2017-10-17T12:25:49.729Z,65.4
2017-10-17T12:26:51.128Z,64.5
2017-10-17T12:27:52.528Z,64.8
2017-10-17T12:28:53.930Z,64.5
2017-10-17T12:29:55.330Z,64.7
2017-10-17T12:30:56.732Z,63.7
2017-10-17T12:31:58.129Z,63.9
2017-10-17T12:32:59.526Z,64.4
2017-10-17T12:34:00.925Z,64.7
2017-10-17T12:35:02.330Z,64.9
2017-10-17T12:36:03.729Z,64.6
2017-10-17T12:37:05.129Z,64.4
2017-10-17T12:38:06.552Z,64.8
2017-10-17T12:39:07.956Z,65.3
2017-10-17T12:40:09.354Z,65.2
2017-10-17T12:41:10.760Z,64.7
2017-10-17T12:42:12.155Z,65.1
2017-10-17T12:43:13.559Z,65.6
2017-10-17T12:44:14.959Z,65.5
2017-10-17T12:45:16.365Z,65.5
2017-10-17T12:46:17.759Z,65.4
2017-10-17T12:47:19.154Z,66.3
2017-10-17T12:48:20.554Z,65.4
2017-10-17T12:49:21.955Z,66.2
2017-10-17T12:50:23.356Z,66.3
2017-10-17T12:51:24.764Z,66.2
2017-10-17T12:52:26.159Z,66.3
2017-10-17T12:53:27.558Z,66.3
2017-10-17T12:54:28.958Z,66.1
2017-10-17T12:55:30.354Z,66.4
2017-10-17T12:56:31.757Z,66.9
2017-10-17T12:57:33.161Z,67.2
2017-10-17T12:58:34.560Z,65.8
2017-10-17T12:59:35.955Z,65.8
2017-10-17T13:00:37.362Z,66.2
2017-10-17T13:01:38.758Z,66.2
2017-10-17T13:02:40.155Z,66.5
2017-10-17T13:03:41.558Z,66.6
2017-10-17T13:04:42.960Z,66.5
2017-10-17T13:05:44.361Z,66.4
2017-10-17T13:06:45.759Z,66.7
2017-10-17T13:07:47.162Z,66.3
2017-10-17T13:08:48.561Z,66.5
2017-10-17T13:09:49.958Z,66.2
2017-10-17T13:10:51.359Z,65.7
2017-10-17T13:11:52.762Z,65.3
2017-10-17T13:12:54.157Z,65.6
2017-10-17T13:13:55.559Z,65.7
2017-10-17T13:14:56.956Z,65.3
2017-10-17T13:15:58.355Z,65.1
2017-10-17T13:16:59.752Z,65.4
2017-10-17T13:18:01.151Z,66.3
2017-10-17T13:19:02.555Z,65.5
2017-10-17T13:20:03.954Z,65.7
2017-10-17T13:21:05.353Z,65.8
2017-10-17T13:22:06.757Z,65.7
2017-10-17T13:23:08.158Z,65.3
2017-10-17T13:24:09.557Z,65.8
2017-10-17T13:25:10.960Z,65.7
2017-10-17T13:26:12.360Z,65.2
2017-10-17T13:27:13.767Z,66.1
2017-10-17T13:28:15.165Z,65.5
2017-10-17T13:29:16.565Z,66.0
2017-10-17T13:30:17.961Z,65.4
2017-10-17T13:31:19.361Z,65.6
2017-10-17T13:32:20.760Z,65.9
2017-10-17T13:33:22.162Z,65.6
2017-10-17T13:34:23.560Z,65.6
2017-10-17T13:35:24.961Z,65.3
2017-10-17T13:36:26.357Z,65.1
2017-10-17T13:37:27.754Z,65.4